sensor_id;sensor_type;location;lat;lon;timestamp;P1;durP1;ratioP1;P2;durP2;ratioP2
15043;SDS011;7619;48.562;8.910;2023-02-03T00:00:40;3.23;;;0.70;;
15043;SDS011;7619;48.562;8.910;2023-02-03T00:03:09;1.17;;;1.07;;
15043;SDS011;7619;48.562;8.910;2023-02-03T00:05:38;2.23;;;0.70;;
15043;SDS011;7619;48.562;8.910;2023-02-03T00:08:08;1.47;;;1.03;;
15043;SDS011;7619;48.562;8.910;2023-02-03T00:10:36;1.07;;;0.97;;
15043;SDS011;7619;48.562;8.910;2023-02-03T00:13:06;0.70;;;0.70;;
15043;SDS011;7619;48.562;8.910;2023-02-03T00:15:36;1.30;;;1.20;;
15043;SDS011;7619;48.562;8.910;2023-02-03T00:18:04;1.00;;;0.83;;
15043;SDS011;7619;48.562;8.910;2023-02-03T00:20:32;1.00;;;0.93;;
15043;SDS011;7619;48.562;8.910;2023-02-03T00:23:04;0.80;;;0.80;;
15043;SDS011;7619;48.562;8.910;2023-02-03T00:25:32;1.03;;;1.00;;
15043;SDS011;7619;48.562;8.910;2023-02-03T00:28:01;2.50;;;0.80;;
15043;SDS011;7619;48.562;8.910;2023-02-03T00:30:29;1.40;;;1.00;;
15043;SDS011;7619;48.562;8.910;2023-02-03T00:32:57;2.83;;;1.47;;
15043;SDS011;7619;48.562;8.910;2023-02-03T00:35:25;2.30;;;1.50;;
15043;SDS011;7619;48.562;8.910;2023-02-03T00:37:55;2.60;;;0.80;;
15043;SDS011;7619;48.562;8.910;2023-02-03T00:40:24;1.03;;;0.90;;
15043;SDS011;7619;48.562;8.910;2023-02-03T00:42:51;0.90;;;0.90;;
15043;SDS011;7619;48.562;8.910;2023-02-03T00:45:21;2.90;;;0.97;;
15043;SDS011;7619;48.562;8.910;2023-02-03T00:47:49;2.60;;;1.20;;
15043;SDS011;7619;48.562;8.910;2023-02-03T00:50:17;1.13;;;1.03;;
15043;SDS011;7619;48.562;8.910;2023-02-03T00:52:45;1.57;;;1.30;;
15043;SDS011;7619;48.562;8.910;2023-02-03T00:55:14;1.43;;;1.00;;
15043;SDS011;7619;48.562;8.910;2023-02-03T00:57:42;2.37;;;1.20;;
15043;SDS011;7619;48.562;8.910;2023-02-03T01:00:11;0.90;;;0.87;;
15043;SDS011;7619;48.562;8.910;2023-02-03T01:02:39;1.57;;;1.30;;
15043;SDS011;7619;48.562;8.910;2023-02-03T01:05:07;2.50;;;1.10;;
15043;SDS011;7619;48.562;8.910;2023-02-03T01:07:36;1.50;;;1.10;;
15043;SDS011;7619;48.562;8.910;2023-02-03T01:10:06;1.53;;;1.10;;
15043;SDS011;7619;48.562;8.910;2023-02-03T01:12:34;1.20;;;1.10;;
15043;SDS011;7619;48.562;8.910;2023-02-03T01:15:04;1.97;;;1.10;;
15043;SDS011;7619;48.562;8.910;2023-02-03T01:17:34;1.30;;;1.20;;
15043;SDS011;7619;48.562;8.910;2023-02-03T01:20:02;1.77;;;1.30;;
15043;SDS011;7619;48.562;8.910;2023-02-03T01:22:31;3.50;;;1.30;;
15043;SDS011;7619;48.562;8.910;2023-02-03T01:24:58;1.90;;;1.10;;
15043;SDS011;7619;48.562;8.910;2023-02-03T01:27:27;3.23;;;1.20;;
15043;SDS011;7619;48.562;8.910;2023-02-03T01:29:58;1.27;;;0.90;;
15043;SDS011;7619;48.562;8.910;2023-02-03T01:32:26;1.00;;;0.93;;
15043;SDS011;7619;48.562;8.910;2023-02-03T01:34:54;1.50;;;0.93;;
15043;SDS011;7619;48.562;8.910;2023-02-03T01:37:22;2.43;;;1.10;;
15043;SDS011;7619;48.562;8.910;2023-02-03T01:39:50;3.13;;;1.10;;
15043;SDS011;7619;48.562;8.910;2023-02-03T01:42:18;4.03;;;1.13;;
15043;SDS011;7619;48.562;8.910;2023-02-03T01:44:47;1.47;;;1.17;;
15043;SDS011;7619;48.562;8.910;2023-02-03T01:47:19;6.90;;;1.80;;
15043;SDS011;7619;48.562;8.910;2023-02-03T01:49:48;1.00;;;1.00;;
15043;SDS011;7619;48.562;8.910;2023-02-03T01:52:20;1.40;;;1.27;;
15043;SDS011;7619;48.562;8.910;2023-02-03T01:54:49;2.27;;;1.10;;
15043;SDS011;7619;48.562;8.910;2023-02-03T01:57:21;2.63;;;1.23;;
15043;SDS011;7619;48.562;8.910;2023-02-03T01:59:51;1.23;;;0.93;;
15043;SDS011;7619;48.562;8.910;2023-02-03T02:02:20;1.50;;;1.40;;
15043;SDS011;7619;48.562;8.910;2023-02-03T02:04:52;3.13;;;1.63;;
15043;SDS011;7619;48.562;8.910;2023-02-03T02:07:22;1.20;;;1.13;;
15043;SDS011;7619;48.562;8.910;2023-02-03T02:09:52;1.33;;;1.10;;
15043;SDS011;7619;48.562;8.910;2023-02-03T02:12:22;2.77;;;1.27;;
15043;SDS011;7619;48.562;8.910;2023-02-03T02:14:51;4.53;;;1.57;;
15043;SDS011;7619;48.562;8.910;2023-02-03T02:17:29;1.70;;;1.40;;
15043;SDS011;7619;48.562;8.910;2023-02-03T02:20:18;1.90;;;1.30;;
15043;SDS011;7619;48.562;8.910;2023-02-03T02:22:49;1.03;;;0.93;;
15043;SDS011;7619;48.562;8.910;2023-02-03T02:25:29;1.40;;;1.03;;
15043;SDS011;7619;48.562;8.910;2023-02-03T02:34:06;1.00;;;0.90;;
15043;SDS011;7619;48.562;8.910;2023-02-03T02:36:37;3.40;;;1.00;;
15043;SDS011;7619;48.562;8.910;2023-02-03T02:39:11;2.93;;;1.10;;
15043;SDS011;7619;48.562;8.910;2023-02-03T02:41:40;0.93;;;0.93;;
15043;SDS011;7619;48.562;8.910;2023-02-03T02:44:20;1.00;;;1.00;;
15043;SDS011;7619;48.562;8.910;2023-02-03T02:46:48;4.73;;;1.03;;
15043;SDS011;7619;48.562;8.910;2023-02-03T02:49:18;3.30;;;1.20;;
15043;SDS011;7619;48.562;8.910;2023-02-03T02:51:48;2.50;;;0.90;;
15043;SDS011;7619;48.562;8.910;2023-02-03T02:54:20;1.83;;;0.93;;
15043;SDS011;7619;48.562;8.910;2023-02-03T02:56:52;1.67;;;1.10;;
15043;SDS011;7619;48.562;8.910;2023-02-03T02:59:21;3.13;;;1.00;;
15043;SDS011;7619;48.562;8.910;2023-02-03T03:01:50;1.40;;;0.67;;
15043;SDS011;7619;48.562;8.910;2023-02-03T03:04:19;0.73;;;0.73;;
15043;SDS011;7619;48.562;8.910;2023-02-03T03:06:48;0.70;;;0.70;;
15043;SDS011;7619;48.562;8.910;2023-02-03T03:09:20;2.53;;;0.93;;
15043;SDS011;7619;48.562;8.910;2023-02-03T03:11:52;2.77;;;0.90;;
15043;SDS011;7619;48.562;8.910;2023-02-03T03:14:24;1.80;;;0.90;;
15043;SDS011;7619;48.562;8.910;2023-02-03T03:16:53;0.70;;;0.70;;
15043;SDS011;7619;48.562;8.910;2023-02-03T03:19:25;0.93;;;0.83;;
15043;SDS011;7619;48.562;8.910;2023-02-03T03:22:04;0.67;;;0.67;;
15043;SDS011;7619;48.562;8.910;2023-02-03T03:24:36;2.30;;;0.90;;
15043;SDS011;7619;48.562;8.910;2023-02-03T03:27:08;0.73;;;0.73;;
15043;SDS011;7619;48.562;8.910;2023-02-03T03:29:39;1.77;;;1.00;;
15043;SDS011;7619;48.562;8.910;2023-02-03T03:32:11;1.63;;;0.80;;
15043;SDS011;7619;48.562;8.910;2023-02-03T03:34:39;0.80;;;0.80;;
15043;SDS011;7619;48.562;8.910;2023-02-03T03:37:08;0.80;;;0.80;;
15043;SDS011;7619;48.562;8.910;2023-02-03T03:39:41;5.67;;;1.10;;
15043;SDS011;7619;48.562;8.910;2023-02-03T03:42:11;2.03;;;0.93;;
15043;SDS011;7619;48.562;8.910;2023-02-03T03:44:42;0.63;;;0.63;;
15043;SDS011;7619;48.562;8.910;2023-02-03T03:47:09;0.70;;;0.70;;
15043;SDS011;7619;48.562;8.910;2023-02-03T03:49:40;0.73;;;0.73;;
15043;SDS011;7619;48.562;8.910;2023-02-03T03:52:13;4.73;;;0.97;;
15043;SDS011;7619;48.562;8.910;2023-02-03T03:54:50;1.67;;;1.00;;
15043;SDS011;7619;48.562;8.910;2023-02-03T03:57:22;3.60;;;1.27;;
15043;SDS011;7619;48.562;8.910;2023-02-03T03:59:53;1.47;;;1.00;;
15043;SDS011;7619;48.562;8.910;2023-02-03T04:02:24;2.23;;;0.67;;
15043;SDS011;7619;48.562;8.910;2023-02-03T04:04:52;1.20;;;0.90;;
15043;SDS011;7619;48.562;8.910;2023-02-03T04:07:20;2.10;;;0.80;;
15043;SDS011;7619;48.562;8.910;2023-02-03T04:09:49;1.27;;;0.60;;
15043;SDS011;7619;48.562;8.910;2023-02-03T04:12:20;0.80;;;0.80;;
15043;SDS011;7619;48.562;8.910;2023-02-03T04:14:48;1.03;;;0.70;;
15043;SDS011;7619;48.562;8.910;2023-02-03T04:17:16;0.70;;;0.70;;
15043;SDS011;7619;48.562;8.910;2023-02-03T04:19:45;0.53;;;0.53;;
15043;SDS011;7619;48.562;8.910;2023-02-03T04:22:14;0.63;;;0.63;;
15043;SDS011;7619;48.562;8.910;2023-02-03T04:24:43;2.83;;;0.87;;
15043;SDS011;7619;48.562;8.910;2023-02-03T04:27:12;0.50;;;0.50;;
15043;SDS011;7619;48.562;8.910;2023-02-03T04:29:40;1.17;;;0.70;;
15043;SDS011;7619;48.562;8.910;2023-02-03T04:32:08;2.03;;;0.80;;
15043;SDS011;7619;48.562;8.910;2023-02-03T04:34:36;1.17;;;1.00;;
15043;SDS011;7619;48.562;8.910;2023-02-03T04:37:04;0.77;;;0.77;;
15043;SDS011;7619;48.562;8.910;2023-02-03T04:39:33;1.30;;;1.07;;
15043;SDS011;7619;48.562;8.910;2023-02-03T04:42:01;2.10;;;0.80;;
15043;SDS011;7619;48.562;8.910;2023-02-03T04:44:29;1.20;;;0.93;;
15043;SDS011;7619;48.562;8.910;2023-02-03T04:46:57;1.27;;;0.90;;
15043;SDS011;7619;48.562;8.910;2023-02-03T04:49:25;0.83;;;0.83;;
15043;SDS011;7619;48.562;8.910;2023-02-03T04:51:53;0.90;;;0.90;;
15043;SDS011;7619;48.562;8.910;2023-02-03T04:54:21;0.93;;;0.93;;
15043;SDS011;7619;48.562;8.910;2023-02-03T04:56:49;1.10;;;0.97;;
15043;SDS011;7619;48.562;8.910;2023-02-03T04:59:17;1.30;;;1.20;;
15043;SDS011;7619;48.562;8.910;2023-02-03T05:01:45;2.57;;;1.53;;
15043;SDS011;7619;48.562;8.910;2023-02-03T05:04:13;2.43;;;1.30;;
15043;SDS011;7619;48.562;8.910;2023-02-03T05:06:41;1.40;;;1.30;;
15043;SDS011;7619;48.562;8.910;2023-02-03T05:09:09;1.27;;;1.10;;
15043;SDS011;7619;48.562;8.910;2023-02-03T05:11:37;1.60;;;1.50;;
15043;SDS011;7619;48.562;8.910;2023-02-03T05:14:05;2.90;;;1.40;;
15043;SDS011;7619;48.562;8.910;2023-02-03T05:16:33;1.00;;;0.80;;
15043;SDS011;7619;48.562;8.910;2023-02-03T05:19:01;1.40;;;1.00;;
15043;SDS011;7619;48.562;8.910;2023-02-03T05:21:29;1.47;;;0.70;;
15043;SDS011;7619;48.562;8.910;2023-02-03T05:23:57;1.77;;;1.00;;
15043;SDS011;7619;48.562;8.910;2023-02-03T05:26:26;0.93;;;0.90;;
15043;SDS011;7619;48.562;8.910;2023-02-03T05:28:54;0.93;;;0.80;;
15043;SDS011;7619;48.562;8.910;2023-02-03T05:31:24;1.00;;;0.90;;
15043;SDS011;7619;48.562;8.910;2023-02-03T05:33:52;1.23;;;1.13;;
15043;SDS011;7619;48.562;8.910;2023-02-03T05:36:20;0.87;;;0.77;;
15043;SDS011;7619;48.562;8.910;2023-02-03T05:38:47;0.80;;;0.80;;
15043;SDS011;7619;48.562;8.910;2023-02-03T05:41:16;1.07;;;0.90;;
15043;SDS011;7619;48.562;8.910;2023-02-03T05:44:03;1.00;;;0.97;;
15043;SDS011;7619;48.562;8.910;2023-02-03T05:46:32;2.50;;;1.20;;
15043;SDS011;7619;48.562;8.910;2023-02-03T05:49:00;0.87;;;0.73;;
15043;SDS011;7619;48.562;8.910;2023-02-03T05:51:29;0.80;;;0.80;;
15043;SDS011;7619;48.562;8.910;2023-02-03T05:53:57;2.77;;;0.87;;
15043;SDS011;7619;48.562;8.910;2023-02-03T05:56:25;0.87;;;0.70;;
15043;SDS011;7619;48.562;8.910;2023-02-03T05:58:53;1.30;;;1.20;;
15043;SDS011;7619;48.562;8.910;2023-02-03T06:01:21;0.93;;;0.80;;
15043;SDS011;7619;48.562;8.910;2023-02-03T06:03:49;3.33;;;0.80;;
15043;SDS011;7619;48.562;8.910;2023-02-03T06:06:17;0.80;;;0.80;;
15043;SDS011;7619;48.562;8.910;2023-02-03T06:08:45;1.73;;;0.90;;
15043;SDS011;7619;48.562;8.910;2023-02-03T06:11:13;0.73;;;0.73;;
15043;SDS011;7619;48.562;8.910;2023-02-03T06:13:41;2.70;;;0.83;;
15043;SDS011;7619;48.562;8.910;2023-02-03T06:16:09;0.93;;;0.90;;
15043;SDS011;7619;48.562;8.910;2023-02-03T06:18:37;0.67;;;0.67;;
15043;SDS011;7619;48.562;8.910;2023-02-03T06:21:04;0.83;;;0.83;;
15043;SDS011;7619;48.562;8.910;2023-02-03T06:23:33;1.20;;;0.87;;
15043;SDS011;7619;48.562;8.910;2023-02-03T06:26:02;1.30;;;0.80;;
15043;SDS011;7619;48.562;8.910;2023-02-03T06:28:40;1.20;;;0.70;;
15043;SDS011;7619;48.562;8.910;2023-02-03T06:31:09;2.07;;;1.13;;
15043;SDS011;7619;48.562;8.910;2023-02-03T06:33:37;1.10;;;0.60;;
15043;SDS011;7619;48.562;8.910;2023-02-03T06:36:05;1.60;;;0.90;;
15043;SDS011;7619;48.562;8.910;2023-02-03T06:38:33;2.10;;;1.13;;
15043;SDS011;7619;48.562;8.910;2023-02-03T06:41:02;1.03;;;0.90;;
15043;SDS011;7619;48.562;8.910;2023-02-03T06:43:29;0.83;;;0.80;;
15043;SDS011;7619;48.562;8.910;2023-02-03T06:45:58;1.97;;;0.50;;
15043;SDS011;7619;48.562;8.910;2023-02-03T06:48:28;0.80;;;0.80;;
15043;SDS011;7619;48.562;8.910;2023-02-03T06:50:56;0.87;;;0.83;;
15043;SDS011;7619;48.562;8.910;2023-02-03T06:53:24;0.97;;;0.90;;
15043;SDS011;7619;48.562;8.910;2023-02-03T06:55:52;5.03;;;1.00;;
15043;SDS011;7619;48.562;8.910;2023-02-03T06:58:20;3.60;;;1.20;;
15043;SDS011;7619;48.562;8.910;2023-02-03T07:00:48;0.80;;;0.80;;
15043;SDS011;7619;48.562;8.910;2023-02-03T07:03:17;2.10;;;1.07;;
15043;SDS011;7619;48.562;8.910;2023-02-03T07:05:44;0.70;;;0.70;;
15043;SDS011;7619;48.562;8.910;2023-02-03T07:08:13;2.53;;;0.90;;
15043;SDS011;7619;48.562;8.910;2023-02-03T07:10:42;1.10;;;1.00;;
15043;SDS011;7619;48.562;8.910;2023-02-03T07:13:10;1.57;;;1.40;;
15043;SDS011;7619;48.562;8.910;2023-02-03T07:15:38;2.23;;;1.40;;
15043;SDS011;7619;48.562;8.910;2023-02-03T07:18:06;1.33;;;1.10;;
15043;SDS011;7619;48.562;8.910;2023-02-03T07:20:35;3.60;;;1.83;;
15043;SDS011;7619;48.562;8.910;2023-02-03T07:23:04;1.70;;;1.43;;
15043;SDS011;7619;48.562;8.910;2023-02-03T07:25:33;1.67;;;1.47;;
15043;SDS011;7619;48.562;8.910;2023-02-03T07:28:01;1.47;;;1.30;;
15043;SDS011;7619;48.562;8.910;2023-02-03T07:30:29;1.80;;;1.47;;
15043;SDS011;7619;48.562;8.910;2023-02-03T07:32:57;5.97;;;1.90;;
15043;SDS011;7619;48.562;8.910;2023-02-03T07:35:25;3.83;;;1.53;;
15043;SDS011;7619;48.562;8.910;2023-02-03T07:37:53;3.93;;;1.90;;
15043;SDS011;7619;48.562;8.910;2023-02-03T07:40:21;3.50;;;1.73;;
15043;SDS011;7619;48.562;8.910;2023-02-03T07:42:50;2.87;;;1.90;;
15043;SDS011;7619;48.562;8.910;2023-02-03T07:45:19;1.50;;;1.40;;
15043;SDS011;7619;48.562;8.910;2023-02-03T07:47:47;4.73;;;1.47;;
15043;SDS011;7619;48.562;8.910;2023-02-03T07:50:16;1.50;;;1.27;;
15043;SDS011;7619;48.562;8.910;2023-02-03T07:52:45;1.20;;;1.10;;
15043;SDS011;7619;48.562;8.910;2023-02-03T07:55:16;3.17;;;1.50;;
15043;SDS011;7619;48.562;8.910;2023-02-03T07:57:45;4.53;;;1.37;;
15043;SDS011;7619;48.562;8.910;2023-02-03T08:00:14;2.10;;;1.37;;
15043;SDS011;7619;48.562;8.910;2023-02-03T08:02:42;3.97;;;1.63;;
15043;SDS011;7619;48.562;8.910;2023-02-03T08:05:12;1.47;;;1.37;;
15043;SDS011;7619;48.562;8.910;2023-02-03T08:07:42;2.60;;;1.77;;
15043;SDS011;7619;48.562;8.910;2023-02-03T08:10:10;1.70;;;1.23;;
15043;SDS011;7619;48.562;8.910;2023-02-03T08:12:38;3.43;;;1.80;;
15043;SDS011;7619;48.562;8.910;2023-02-03T08:15:09;2.77;;;1.33;;
15043;SDS011;7619;48.562;8.910;2023-02-03T08:17:38;2.40;;;1.60;;
15043;SDS011;7619;48.562;8.910;2023-02-03T08:20:09;2.60;;;1.27;;
15043;SDS011;7619;48.562;8.910;2023-02-03T08:22:38;1.67;;;1.33;;
15043;SDS011;7619;48.562;8.910;2023-02-03T08:25:08;1.63;;;1.23;;
15043;SDS011;7619;48.562;8.910;2023-02-03T08:27:36;2.17;;;1.73;;
15043;SDS011;7619;48.562;8.910;2023-02-03T08:30:05;1.30;;;1.20;;
15043;SDS011;7619;48.562;8.910;2023-02-03T08:32:34;1.83;;;1.40;;
15043;SDS011;7619;48.562;8.910;2023-02-03T08:35:03;1.73;;;0.87;;
15043;SDS011;7619;48.562;8.910;2023-02-03T08:37:30;4.00;;;1.10;;
15043;SDS011;7619;48.562;8.910;2023-02-03T08:40:00;4.23;;;1.20;;
15043;SDS011;7619;48.562;8.910;2023-02-03T08:42:27;2.10;;;1.00;;
15043;SDS011;7619;48.562;8.910;2023-02-03T08:44:56;3.37;;;1.73;;
15043;SDS011;7619;48.562;8.910;2023-02-03T08:47:25;2.70;;;1.23;;
15043;SDS011;7619;48.562;8.910;2023-02-03T08:49:53;2.37;;;1.37;;
15043;SDS011;7619;48.562;8.910;2023-02-03T08:52:21;1.67;;;1.57;;
15043;SDS011;7619;48.562;8.910;2023-02-03T08:54:49;1.40;;;1.07;;
15043;SDS011;7619;48.562;8.910;2023-02-03T08:57:17;2.33;;;1.57;;
15043;SDS011;7619;48.562;8.910;2023-02-03T08:59:46;1.90;;;1.10;;
15043;SDS011;7619;48.562;8.910;2023-02-03T09:02:15;1.13;;;0.97;;
15043;SDS011;7619;48.562;8.910;2023-02-03T09:04:43;1.47;;;1.20;;
15043;SDS011;7619;48.562;8.910;2023-02-03T09:07:14;1.73;;;0.90;;
15043;SDS011;7619;48.562;8.910;2023-02-03T09:09:43;0.90;;;0.90;;
15043;SDS011;7619;48.562;8.910;2023-02-03T09:12:11;1.20;;;1.03;;
15043;SDS011;7619;48.562;8.910;2023-02-03T09:14:41;1.10;;;0.80;;
15043;SDS011;7619;48.562;8.910;2023-02-03T09:17:09;0.90;;;0.80;;
15043;SDS011;7619;48.562;8.910;2023-02-03T09:19:37;4.73;;;0.90;;
15043;SDS011;7619;48.562;8.910;2023-02-03T09:22:05;0.70;;;0.67;;
15043;SDS011;7619;48.562;8.910;2023-02-03T09:24:33;0.60;;;0.60;;
15043;SDS011;7619;48.562;8.910;2023-02-03T09:27:01;0.47;;;0.47;;
15043;SDS011;7619;48.562;8.910;2023-02-03T09:29:29;0.80;;;0.60;;
15043;SDS011;7619;48.562;8.910;2023-02-03T09:31:57;0.80;;;0.70;;
15043;SDS011;7619;48.562;8.910;2023-02-03T09:34:26;3.33;;;0.70;;
15043;SDS011;7619;48.562;8.910;2023-02-03T09:36:54;0.80;;;0.70;;
15043;SDS011;7619;48.562;8.910;2023-02-03T09:39:23;1.13;;;0.83;;
15043;SDS011;7619;48.562;8.910;2023-02-03T09:42:09;0.70;;;0.57;;
15043;SDS011;7619;48.562;8.910;2023-02-03T09:44:40;2.23;;;0.90;;
15043;SDS011;7619;48.562;8.910;2023-02-03T09:47:10;1.03;;;0.63;;
15043;SDS011;7619;48.562;8.910;2023-02-03T09:49:42;3.53;;;0.93;;
15043;SDS011;7619;48.562;8.910;2023-02-03T09:52:17;0.50;;;0.50;;
15043;SDS011;7619;48.562;8.910;2023-02-03T09:54:49;0.50;;;0.50;;
15043;SDS011;7619;48.562;8.910;2023-02-03T09:57:18;2.63;;;0.70;;
15043;SDS011;7619;48.562;8.910;2023-02-03T09:59:48;0.83;;;0.83;;
15043;SDS011;7619;48.562;8.910;2023-02-03T10:02:26;0.87;;;0.53;;
15043;SDS011;7619;48.562;8.910;2023-02-03T10:05:00;0.60;;;0.60;;
15043;SDS011;7619;48.562;8.910;2023-02-03T10:07:33;2.80;;;0.80;;
15043;SDS011;7619;48.562;8.910;2023-02-03T10:10:08;0.53;;;0.53;;
15043;SDS011;7619;48.562;8.910;2023-02-03T10:12:41;0.87;;;0.70;;
15043;SDS011;7619;48.562;8.910;2023-02-03T10:18:02;1.20;;;0.50;;
15043;SDS011;7619;48.562;8.910;2023-02-03T10:20:34;0.73;;;0.50;;
15043;SDS011;7619;48.562;8.910;2023-02-03T10:23:08;1.13;;;0.60;;
15043;SDS011;7619;48.562;8.910;2023-02-03T10:25:39;0.80;;;0.60;;
15043;SDS011;7619;48.562;8.910;2023-02-03T10:28:13;0.93;;;0.50;;
15043;SDS011;7619;48.562;8.910;2023-02-03T10:30:42;1.10;;;0.53;;
15043;SDS011;7619;48.562;8.910;2023-02-03T10:33:11;2.63;;;0.67;;
15043;SDS011;7619;48.562;8.910;2023-02-03T10:35:46;0.73;;;0.60;;
15043;SDS011;7619;48.562;8.910;2023-02-03T10:38:14;0.30;;;0.30;;
15043;SDS011;7619;48.562;8.910;2023-02-03T10:40:42;0.53;;;0.40;;
15043;SDS011;7619;48.562;8.910;2023-02-03T10:43:11;1.43;;;0.43;;
15043;SDS011;7619;48.562;8.910;2023-02-03T10:45:58;0.90;;;0.57;;
15043;SDS011;7619;48.562;8.910;2023-02-03T10:48:26;0.57;;;0.53;;
15043;SDS011;7619;48.562;8.910;2023-02-03T10:50:56;0.50;;;0.50;;
15043;SDS011;7619;48.562;8.910;2023-02-03T10:53:25;1.07;;;0.63;;
15043;SDS011;7619;48.562;8.910;2023-02-03T10:56:06;2.00;;;0.67;;
15043;SDS011;7619;48.562;8.910;2023-02-03T10:58:37;1.37;;;0.70;;
15043;SDS011;7619;48.562;8.910;2023-02-03T11:01:08;0.87;;;0.70;;
15043;SDS011;7619;48.562;8.910;2023-02-03T11:03:36;0.60;;;0.60;;
15043;SDS011;7619;48.562;8.910;2023-02-03T11:06:08;1.47;;;0.60;;
15043;SDS011;7619;48.562;8.910;2023-02-03T11:08:40;0.70;;;0.50;;
15043;SDS011;7619;48.562;8.910;2023-02-03T11:11:08;1.83;;;0.60;;
15043;SDS011;7619;48.562;8.910;2023-02-03T11:13:37;0.40;;;0.40;;
15043;SDS011;7619;48.562;8.910;2023-02-03T11:16:06;0.57;;;0.47;;
15043;SDS011;7619;48.562;8.910;2023-02-03T11:18:38;0.80;;;0.50;;
15043;SDS011;7619;48.562;8.910;2023-02-03T11:21:15;0.30;;;0.30;;
15043;SDS011;7619;48.562;8.910;2023-02-03T11:23:44;1.03;;;0.70;;
15043;SDS011;7619;48.562;8.910;2023-02-03T11:26:34;0.40;;;0.40;;
15043;SDS011;7619;48.562;8.910;2023-02-03T11:29:05;0.50;;;0.50;;
15043;SDS011;7619;48.562;8.910;2023-02-03T11:31:40;0.63;;;0.50;;
15043;SDS011;7619;48.562;8.910;2023-02-03T11:34:15;0.30;;;0.30;;
15043;SDS011;7619;48.562;8.910;2023-02-03T11:36:43;0.70;;;0.60;;
15043;SDS011;7619;48.562;8.910;2023-02-03T11:39:30;0.50;;;0.50;;
15043;SDS011;7619;48.562;8.910;2023-02-03T11:42:00;2.53;;;0.77;;
15043;SDS011;7619;48.562;8.910;2023-02-03T11:44:31;0.50;;;0.37;;
15043;SDS011;7619;48.562;8.910;2023-02-03T11:47:01;0.50;;;0.40;;
15043;SDS011;7619;48.562;8.910;2023-02-03T11:49:42;0.50;;;0.50;;
15043;SDS011;7619;48.562;8.910;2023-02-03T11:52:14;0.50;;;0.20;;
15043;SDS011;7619;48.562;8.910;2023-02-03T11:54:48;1.00;;;0.50;;
15043;SDS011;7619;48.562;8.910;2023-02-03T11:57:19;0.27;;;0.23;;
15043;SDS011;7619;48.562;8.910;2023-02-03T11:59:56;0.50;;;0.20;;
15043;SDS011;7619;48.562;8.910;2023-02-03T12:02:40;0.23;;;0.23;;
15043;SDS011;7619;48.562;8.910;2023-02-03T12:05:21;0.30;;;0.30;;
15043;SDS011;7619;48.562;8.910;2023-02-03T12:08:06;0.97;;;0.97;;
15043;SDS011;7619;48.562;8.910;2023-02-03T12:10:37;0.50;;;0.50;;
15043;SDS011;7619;48.562;8.910;2023-02-03T12:13:15;0.57;;;0.57;;
15043;SDS011;7619;48.562;8.910;2023-02-03T12:15:55;0.27;;;0.27;;
15043;SDS011;7619;48.562;8.910;2023-02-03T12:18:45;0.57;;;0.40;;
15043;SDS011;7619;48.562;8.910;2023-02-03T12:21:27;2.57;;;0.43;;
15043;SDS011;7619;48.562;8.910;2023-02-03T12:23:57;0.97;;;0.80;;
15043;SDS011;7619;48.562;8.910;2023-02-03T12:26:30;1.27;;;0.60;;
15043;SDS011;7619;48.562;8.910;2023-02-03T12:29:00;1.63;;;0.80;;
15043;SDS011;7619;48.562;8.910;2023-02-03T12:31:38;2.97;;;0.87;;
15043;SDS011;7619;48.562;8.910;2023-02-03T12:34:14;0.40;;;0.40;;
15043;SDS011;7619;48.562;8.910;2023-02-03T12:36:55;1.97;;;0.63;;
15043;SDS011;7619;48.562;8.910;2023-02-03T12:39:25;2.17;;;0.80;;
15043;SDS011;7619;48.562;8.910;2023-02-03T12:41:55;2.13;;;0.90;;
15043;SDS011;7619;48.562;8.910;2023-02-03T12:44:28;1.13;;;0.37;;
15043;SDS011;7619;48.562;8.910;2023-02-03T12:47:01;0.40;;;0.40;;
15043;SDS011;7619;48.562;8.910;2023-02-03T12:49:35;0.50;;;0.50;;
15043;SDS011;7619;48.562;8.910;2023-02-03T12:52:17;1.13;;;0.40;;
15043;SDS011;7619;48.562;8.910;2023-02-03T12:54:51;0.70;;;0.47;;
15043;SDS011;7619;48.562;8.910;2023-02-03T12:57:22;1.13;;;0.77;;
15043;SDS011;7619;48.562;8.910;2023-02-03T13:00:12;0.70;;;0.50;;
15043;SDS011;7619;48.562;8.910;2023-02-03T13:02:43;0.97;;;0.60;;
15043;SDS011;7619;48.562;8.910;2023-02-03T13:05:16;1.80;;;0.70;;
15043;SDS011;7619;48.562;8.910;2023-02-03T13:07:47;1.53;;;0.60;;
15043;SDS011;7619;48.562;8.910;2023-02-03T13:10:21;0.40;;;0.40;;
15043;SDS011;7619;48.562;8.910;2023-02-03T13:12:52;0.50;;;0.30;;
15043;SDS011;7619;48.562;8.910;2023-02-03T13:15:21;1.20;;;0.47;;
15043;SDS011;7619;48.562;8.910;2023-02-03T13:17:54;0.83;;;0.63;;
15043;SDS011;7619;48.562;8.910;2023-02-03T13:20:24;0.30;;;0.30;;
15043;SDS011;7619;48.562;8.910;2023-02-03T13:22:52;0.67;;;0.67;;
15043;SDS011;7619;48.562;8.910;2023-02-03T13:25:22;0.70;;;0.57;;
15043;SDS011;7619;48.562;8.910;2023-02-03T13:27:54;0.97;;;0.87;;
15043;SDS011;7619;48.562;8.910;2023-02-03T13:30:28;1.53;;;0.80;;
15043;SDS011;7619;48.562;8.910;2023-02-03T13:33:02;0.90;;;0.90;;
15043;SDS011;7619;48.562;8.910;2023-02-03T13:35:46;1.30;;;1.20;;
15043;SDS011;7619;48.562;8.910;2023-02-03T13:38:22;1.23;;;0.60;;
15043;SDS011;7619;48.562;8.910;2023-02-03T13:40:55;0.67;;;0.67;;
15043;SDS011;7619;48.562;8.910;2023-02-03T13:43:25;1.17;;;0.93;;
15043;SDS011;7619;48.562;8.910;2023-02-03T13:45:53;0.40;;;0.40;;
15043;SDS011;7619;48.562;8.910;2023-02-03T13:48:25;0.93;;;0.77;;
15043;SDS011;7619;48.562;8.910;2023-02-03T13:51:01;1.20;;;0.90;;
15043;SDS011;7619;48.562;8.910;2023-02-03T13:53:35;1.23;;;0.60;;
15043;SDS011;7619;48.562;8.910;2023-02-03T13:56:06;1.17;;;1.07;;
15043;SDS011;7619;48.562;8.910;2023-02-03T13:58:36;0.40;;;0.40;;
15043;SDS011;7619;48.562;8.910;2023-02-03T14:01:27;0.50;;;0.50;;
15043;SDS011;7619;48.562;8.910;2023-02-03T14:03:55;0.50;;;0.50;;
15043;SDS011;7619;48.562;8.910;2023-02-03T14:09:37;1.53;;;0.77;;
15043;SDS011;7619;48.562;8.910;2023-02-03T14:15:33;0.37;;;0.37;;
15043;SDS011;7619;48.562;8.910;2023-02-03T14:18:03;1.07;;;0.97;;
15043;SDS011;7619;48.562;8.910;2023-02-03T14:20:38;1.67;;;1.30;;
15043;SDS011;7619;48.562;8.910;2023-02-03T14:23:24;0.63;;;0.63;;
15043;SDS011;7619;48.562;8.910;2023-02-03T14:25:53;0.77;;;0.50;;
15043;SDS011;7619;48.562;8.910;2023-02-03T14:28:22;1.40;;;1.30;;
15043;SDS011;7619;48.562;8.910;2023-02-03T14:31:08;1.10;;;1.00;;
15043;SDS011;7619;48.562;8.910;2023-02-03T14:33:51;0.43;;;0.40;;
15043;SDS011;7619;48.562;8.910;2023-02-03T14:36:45;0.70;;;0.70;;
15043;SDS011;7619;48.562;8.910;2023-02-03T14:42:07;0.87;;;0.80;;
15043;SDS011;7619;48.562;8.910;2023-02-03T14:44:37;1.10;;;1.00;;
15043;SDS011;7619;48.562;8.910;2023-02-03T14:47:09;0.67;;;0.67;;
15043;SDS011;7619;48.562;8.910;2023-02-03T14:49:46;0.93;;;0.70;;
15043;SDS011;7619;48.562;8.910;2023-02-03T14:52:21;0.80;;;0.70;;
15043;SDS011;7619;48.562;8.910;2023-02-03T14:54:53;0.60;;;0.50;;
15043;SDS011;7619;48.562;8.910;2023-02-03T14:57:51;0.43;;;0.30;;
15043;SDS011;7619;48.562;8.910;2023-02-03T15:00:27;0.43;;;0.43;;
15043;SDS011;7619;48.562;8.910;2023-02-03T15:03:16;0.80;;;0.80;;
15043;SDS011;7619;48.562;8.910;2023-02-03T15:05:48;0.70;;;0.60;;
15043;SDS011;7619;48.562;8.910;2023-02-03T15:08:31;1.63;;;0.80;;
15043;SDS011;7619;48.562;8.910;2023-02-03T15:11:27;0.40;;;0.40;;
15043;SDS011;7619;48.562;8.910;2023-02-03T15:13:55;1.53;;;0.87;;
15043;SDS011;7619;48.562;8.910;2023-02-03T15:16:24;0.70;;;0.53;;
15043;SDS011;7619;48.562;8.910;2023-02-03T15:18:53;1.37;;;1.27;;
15043;SDS011;7619;48.562;8.910;2023-02-03T15:21:22;2.57;;;1.80;;
15043;SDS011;7619;48.562;8.910;2023-02-03T15:23:52;4.00;;;2.00;;
15043;SDS011;7619;48.562;8.910;2023-02-03T15:26:20;3.00;;;1.70;;
15043;SDS011;7619;48.562;8.910;2023-02-03T15:28:53;4.00;;;2.23;;
15043;SDS011;7619;48.562;8.910;2023-02-03T15:31:23;6.40;;;2.73;;
15043;SDS011;7619;48.562;8.910;2023-02-03T15:33:51;2.70;;;1.93;;
15043;SDS011;7619;48.562;8.910;2023-02-03T15:36:21;5.33;;;2.50;;
15043;SDS011;7619;48.562;8.910;2023-02-03T15:38:53;1.97;;;1.60;;
15043;SDS011;7619;48.562;8.910;2023-02-03T15:41:24;2.37;;;1.47;;